createdAt,value
2023-04-02T00:00:00.427Z,11.58
2023-04-02T00:05:00.599Z,11.58
2023-04-02T00:10:00.339Z,11.58
2023-04-02T00:15:01.139Z,11.58
2023-04-02T00:20:00.519Z,11.58
2023-04-02T00:25:00.456Z,11.58
2023-04-02T00:30:00.355Z,12.09
2023-04-02T00:35:00.573Z,11.98
2023-04-02T00:40:00.351Z,11.98
2023-04-02T00:45:00.465Z,11.98
2023-04-02T00:50:00.551Z,11.98
2023-04-02T00:55:00.436Z,11.98
2023-04-02T01:00:00.375Z,11.98
2023-04-02T01:05:00.561Z,12.6
2023-04-02T01:10:02.687Z,12.6
2023-04-02T01:15:00.378Z,12.6
2023-04-02T01:20:00.587Z,12.6
2023-04-02T01:25:00.323Z,12.73
2023-04-02T01:30:03.141Z,12.73
2023-04-02T01:35:00.487Z,12.61
2023-04-02T01:40:00.472Z,12.61
2023-04-02T01:45:00.411Z,12.61
2023-04-02T01:50:00.644Z,12.61
2023-04-02T01:55:00.398Z,12.61
2023-04-02T02:00:00.516Z,12.61
2023-04-02T02:05:00.628Z,12.61
2023-04-02T02:10:00.343Z,12.33
2023-04-02T02:15:00.455Z,12.33
2023-04-02T02:20:00.427Z,12.38
2023-04-02T02:25:00.399Z,12.38
2023-04-02T02:30:00.429Z,12.38
2023-04-02T02:35:00.474Z,12.38
2023-04-02T02:40:00.360Z,12.38
2023-04-02T02:45:00.509Z,12.38
2023-04-02T02:50:00.515Z,12.16
2023-04-02T02:55:00.681Z,12.16
2023-04-02T03:00:00.485Z,12.16
2023-04-02T03:05:01.109Z,12.16
2023-04-02T03:10:00.515Z,12.16
2023-04-02T03:15:00.693Z,12.43
2023-04-02T03:20:00.692Z,12.81
2023-04-02T03:25:00.369Z,12.29
2023-04-02T03:30:00.476Z,12.29
2023-04-02T03:35:03.323Z,12.29
2023-04-02T03:40:00.409Z,12.29
2023-04-02T03:45:00.497Z,12.29
2023-04-02T03:50:00.493Z,12.06
2023-04-02T03:55:01.094Z,12.4
2023-04-02T04:00:00.749Z,12.4
2023-04-02T04:05:00.547Z,12.94
2023-04-02T04:10:01.447Z,12.88
2023-04-02T04:15:00.328Z,12.88
2023-04-02T04:20:00.726Z,12.59
2023-04-02T04:25:00.414Z,12.8
2023-04-02T04:30:00.450Z,12.81
2023-04-02T04:35:00.944Z,12.81
2023-04-02T04:45:00.324Z,12.98
2023-04-02T04:50:01.652Z,12.98
2023-04-02T04:55:00.343Z,12.98
2023-04-02T05:00:00.485Z,12.87
2023-04-02T05:05:00.787Z,13.09
2023-04-02T05:10:00.685Z,13.09
2023-04-02T05:15:00.355Z,13.09
2023-04-02T05:20:00.480Z,12.68
2023-04-02T05:25:00.333Z,12.68
2023-04-02T05:30:00.461Z,12.68
2023-04-02T05:35:00.545Z,12.68
2023-04-02T05:45:00.351Z,12.28
2023-04-02T05:50:00.711Z,12.28
2023-04-02T05:55:00.355Z,12.28
2023-04-02T06:00:00.421Z,12.97
2023-04-02T06:05:00.567Z,13.83
2023-04-02T06:10:00.338Z,14.35
2023-04-02T06:15:00.446Z,14.35
2023-04-02T06:20:00.588Z,14
2023-04-02T06:25:00.328Z,13.59
2023-04-02T06:30:00.442Z,13.59
2023-04-02T06:35:00.460Z,13.08
2023-04-02T06:40:01.087Z,13.19
2023-04-02T06:45:00.338Z,13.19
2023-04-02T06:50:00.539Z,13.33
2023-04-02T06:55:00.408Z,13.42
2023-04-02T07:00:00.498Z,13.42
2023-04-02T07:05:00.887Z,13.6
2023-04-02T07:10:00.360Z,12.6
2023-04-02T07:15:00.406Z,12.6
2023-04-02T07:20:00.489Z,12.3
2023-04-02T07:25:00.393Z,12.3
2023-04-02T07:30:00.330Z,12.46
2023-04-02T07:35:01.012Z,11.91
2023-04-02T07:40:00.337Z,11.91
2023-04-02T07:45:00.479Z,11.91
2023-04-02T07:50:01.193Z,11.96
2023-04-02T07:55:00.360Z,11.56
2023-04-02T08:00:00.913Z,11.56
2023-04-02T08:05:00.607Z,11.56
2023-04-02T08:10:00.452Z,11.7
2023-04-02T08:15:00.352Z,11.7
2023-04-02T08:20:01.828Z,11.7
2023-04-02T08:25:00.345Z,11.86
2023-04-02T08:30:00.409Z,12.4
2023-04-02T08:35:00.541Z,12.39
2023-04-02T08:40:00.777Z,12.67
2023-04-02T08:45:03.913Z,12.08
2023-04-02T08:50:02.128Z,12.15
2023-04-02T08:55:00.467Z,11.68
2023-04-02T09:00:00.501Z,11.68
2023-04-02T09:05:00.648Z,12.19
2023-04-02T09:10:00.434Z,12.19
2023-04-02T09:15:00.352Z,12.01
2023-04-02T09:20:01.735Z,12.57
2023-04-02T09:25:00.330Z,12.09
2023-04-02T09:30:00.474Z,12.09
2023-04-02T09:35:00.412Z,12.08
2023-04-02T09:40:00.985Z,12.08
2023-04-02T09:45:00.342Z,12.94
2023-04-02T09:50:00.528Z,12.49
2023-04-02T09:55:02.187Z,13.02
2023-04-02T10:00:00.355Z,13.02
2023-04-02T10:05:01.580Z,13.02
2023-04-02T10:10:00.338Z,12.57
2023-04-02T10:15:00.405Z,12.57
2023-04-02T10:20:00.544Z,12.81
2023-04-02T10:25:00.470Z,12.81
2023-04-02T10:30:00.343Z,12.81
2023-04-02T10:35:00.525Z,12.26
2023-04-02T10:45:00.520Z,12.47
2023-04-02T10:50:00.659Z,12.47
2023-04-02T10:55:01.464Z,13.01
2023-04-02T11:00:00.551Z,12.5
2023-04-02T11:05:01.944Z,12.5
2023-04-02T11:10:00.744Z,12.5
2023-04-02T11:15:00.539Z,12.47
2023-04-02T11:20:01.394Z,12.35
2023-04-02T11:25:00.534Z,12.35
2023-04-02T11:30:00.990Z,12.35
2023-04-02T11:35:07.163Z,12.9
2023-04-02T11:40:00.552Z,13.38
2023-04-02T11:45:01.473Z,13.38
2023-04-02T11:50:00.750Z,13.88
2023-04-02T11:55:00.750Z,13.32
2023-04-02T12:00:00.501Z,13.38
2023-04-02T12:05:01.708Z,13.38
2023-04-02T12:10:00.927Z,12.84
2023-04-02T12:15:00.492Z,13.42
2023-04-02T12:20:01.018Z,12.9
2023-04-02T12:25:01.322Z,12.93
2023-04-02T12:30:00.948Z,13.43
2023-04-02T12:35:01.758Z,12.88
2023-04-02T12:40:00.880Z,12.88
2023-04-02T12:45:01.068Z,13.41
2023-04-02T12:50:00.887Z,12.84
2023-04-02T12:55:02.154Z,13.04
2023-04-02T13:00:00.544Z,13.23
2023-04-02T13:05:01.172Z,13.23
2023-04-02T13:10:01.221Z,12.73
2023-04-02T13:15:00.656Z,12.22
2023-04-02T13:20:01.509Z,12.73
2023-04-02T13:25:02.393Z,12.44
2023-04-02T13:30:00.536Z,13.33
2023-04-02T13:35:02.923Z,12.83
2023-04-02T13:40:03.210Z,12.81
2023-04-02T13:45:00.610Z,12.81
2023-04-02T13:50:00.659Z,12.81
2023-04-02T13:55:02.347Z,12.29
2023-04-02T14:00:00.551Z,12.29
2023-04-02T14:05:02.200Z,11.78
2023-04-02T14:10:00.786Z,11.78
2023-04-02T14:15:02.143Z,11.46
2023-04-02T14:20:01.456Z,11.5
2023-04-02T14:25:00.908Z,11.57
2023-04-02T14:30:01.638Z,10.99
2023-04-02T14:35:01.776Z,10.99
2023-04-02T14:40:00.599Z,12.05
2023-04-02T14:45:00.636Z,12.05
2023-04-02T14:50:01.806Z,11.54
2023-04-02T14:55:02.796Z,11.01
2023-04-02T15:00:02.220Z,11.01
2023-04-02T15:05:01.727Z,11.3
2023-04-02T15:10:00.938Z,11.3
2023-04-02T15:15:02.605Z,11.48
2023-04-02T15:25:00.798Z,11.29
2023-04-02T15:30:00.277Z,10.75
2023-04-02T15:35:00.300Z,11.27
2023-04-02T15:40:00.404Z,11.27
2023-04-02T15:45:00.276Z,10.75
2023-04-02T15:50:00.354Z,10.75
2023-04-02T15:55:00.521Z,10.75
2023-04-02T16:00:00.276Z,10.24
2023-04-02T16:05:00.332Z,10.24
2023-04-02T16:10:00.379Z,10.75
2023-04-02T16:15:00.312Z,10.75
2023-04-02T16:20:00.294Z,10.24
2023-04-02T16:25:00.434Z,10.79
2023-04-02T16:30:00.203Z,10.79
2023-04-02T16:35:19.264Z,11.34
2023-04-02T16:40:01.058Z,11.85
2023-04-02T16:45:00.277Z,11.85
2023-04-02T16:50:00.368Z,11.85
2023-04-02T16:55:00.594Z,11.33
2023-04-02T17:00:00.365Z,11.33
2023-04-02T17:05:00.280Z,11.15
2023-04-02T17:10:00.460Z,11.1
2023-04-02T17:15:00.288Z,11.1
2023-04-02T17:20:05.018Z,10.6
2023-04-02T17:25:00.405Z,10.6
2023-04-02T17:30:00.374Z,10.72
2023-04-02T17:35:00.275Z,10.72
2023-04-02T17:40:00.935Z,10.72
2023-04-02T17:45:00.383Z,10.54
2023-04-02T17:50:00.357Z,10.42
2023-04-02T17:55:00.780Z,10.42
2023-04-02T18:00:00.299Z,10
2023-04-02T18:05:00.734Z,10.09
2023-04-02T18:10:00.491Z,10.09
2023-04-02T18:15:00.307Z,10.19
2023-04-02T18:20:00.293Z,10.81
2023-04-02T18:25:00.568Z,10.81
2023-04-02T18:30:00.318Z,10.81
2023-04-02T18:35:00.324Z,10.81
2023-04-02T18:40:00.659Z,10.3
2023-04-02T18:45:00.363Z,10.85
2023-04-02T18:50:00.319Z,10.85
2023-04-02T18:55:00.566Z,10.85
2023-04-02T19:00:00.398Z,11.66
2023-04-02T19:05:00.470Z,10.9
2023-04-02T19:10:00.488Z,10.39
2023-04-02T19:15:00.402Z,10.46
2023-04-02T19:20:00.280Z,10.46
2023-04-02T19:25:00.546Z,10.46
2023-04-02T19:30:00.300Z,10.46
2023-04-02T19:35:01.004Z,10.46
2023-04-02T19:40:02.127Z,10.46
2023-04-02T19:45:00.562Z,10.3
2023-04-02T19:50:00.405Z,10.3
2023-04-02T19:55:00.326Z,10
2023-04-02T20:00:00.428Z,9.78
2023-04-02T20:05:00.371Z,9.78
2023-04-02T20:10:00.505Z,10.34
2023-04-02T20:15:00.311Z,10.34
2023-04-02T20:20:00.436Z,10.34
2023-04-02T20:25:00.356Z,10.34
2023-04-02T20:30:00.330Z,10.34
2023-04-02T20:35:00.326Z,10.34
2023-04-02T20:40:00.428Z,10.16
2023-04-02T20:45:00.291Z,9.92
2023-04-02T20:50:00.839Z,9.92
2023-04-02T20:55:00.481Z,9.92
2023-04-02T21:00:00.473Z,9.92
2023-04-02T21:05:00.412Z,9.92
2023-04-02T21:10:00.503Z,9.92
2023-04-02T21:15:02.480Z,10.7
2023-04-02T21:20:00.729Z,10.16
2023-04-02T21:25:00.523Z,10.16
2023-04-02T21:30:00.590Z,10.16
2023-04-02T21:35:01.202Z,10.76
2023-04-02T21:40:00.536Z,10.76
2023-04-02T21:45:00.680Z,10.15
2023-04-02T21:50:00.660Z,11.33
2023-04-02T21:55:00.585Z,11.91
2023-04-02T22:00:00.493Z,11.91
2023-04-02T22:05:00.788Z,12.46
2023-04-02T22:10:00.505Z,13.01
2023-04-02T22:15:00.667Z,13.01
2023-04-02T22:20:01.662Z,13.01
2023-04-02T22:25:00.542Z,13.01
2023-04-02T22:30:00.572Z,13.01
2023-04-02T22:35:01.160Z,13.05
2023-04-02T22:40:00.864Z,13.05
2023-04-02T22:45:01.861Z,13.05
2023-04-02T22:50:01.093Z,12.47
2023-04-02T22:55:00.536Z,11.37
2023-04-02T23:00:00.922Z,10.86
2023-04-02T23:05:00.825Z,10.29
2023-04-02T23:10:00.621Z,10.29
2023-04-02T23:15:00.771Z,9.74
2023-04-02T23:20:00.716Z,9.74
2023-04-02T23:25:00.658Z,9.74
2023-04-02T23:30:00.825Z,9.5
2023-04-02T23:35:00.564Z,9.22
2023-04-02T23:40:00.574Z,9.31
2023-04-02T23:45:01.002Z,9.31
2023-04-02T23:50:00.640Z,9.31
2023-04-02T23:55:00.511Z,9.31
